createdAt,value
2023-02-15T00:01:15.722Z,7.05
2023-02-15T00:03:42.208Z,7.35
2023-02-15T00:06:08.637Z,6.97
2023-02-15T00:08:35.145Z,7.95
2023-02-15T00:11:09.329Z,7.25
2023-02-15T00:13:37.116Z,7.25
2023-02-15T00:16:06.022Z,7.65
2023-02-15T00:18:32.905Z,7.38
2023-02-15T00:21:03.150Z,8.60
2023-02-15T00:23:29.598Z,7.13
2023-02-15T00:26:06.111Z,6.68
2023-02-15T00:28:32.659Z,9.02
2023-02-15T00:31:07.565Z,8.57
2023-02-15T00:33:34.160Z,7.90
2023-02-15T00:36:02.204Z,7.63
2023-02-15T00:38:29.742Z,8.43
2023-02-15T00:40:57.830Z,7.80
2023-02-15T00:43:25.368Z,7.80
2023-02-15T00:45:51.968Z,7.65
2023-02-15T00:48:19.084Z,6.95
2023-02-15T00:50:54.234Z,8.98
2023-02-15T00:53:21.689Z,7.13
2023-02-15T00:55:48.460Z,9.07
2023-02-15T00:58:15.541Z,8.30
2023-02-15T01:00:44.718Z,7.35
2023-02-15T01:03:12.255Z,8.35
2023-02-15T01:05:41.056Z,7.35
2023-02-15T01:08:07.729Z,7.20
2023-02-15T01:10:35.989Z,6.32
2023-02-15T01:13:02.572Z,6.18
2023-02-15T01:15:29.166Z,6.68
2023-02-15T01:17:56.375Z,8.13
2023-02-15T01:20:28.797Z,8.55
2023-02-15T01:22:55.668Z,7.35
2023-02-15T01:25:24.229Z,7.75
2023-02-15T01:27:50.634Z,7.97
2023-02-15T01:30:17.273Z,7.40
2023-02-15T01:32:44.061Z,7.45
2023-02-15T01:35:11.551Z,7.30
2023-02-15T01:37:38.125Z,5.95
2023-02-15T01:40:07.479Z,6.63
2023-02-15T01:42:33.864Z,5.72
2023-02-15T01:45:03.908Z,7.03
2023-02-15T01:47:39.501Z,7.00
2023-02-15T01:50:13.352Z,9.32
2023-02-15T01:52:44.832Z,7.18
2023-02-15T01:57:40.751Z,6.80
2023-02-15T02:00:09.167Z,9.18
2023-02-15T02:02:36.503Z,7.20
2023-02-15T02:05:07.379Z,7.13
2023-02-15T02:07:39.133Z,8.02
2023-02-15T02:10:07.139Z,7.18
2023-02-15T02:12:35.298Z,7.28
2023-02-15T02:15:09.440Z,6.78
2023-02-15T02:17:51.090Z,7.75
2023-02-15T02:20:26.340Z,6.97
2023-02-15T02:23:11.505Z,6.53
2023-02-15T02:26:15.446Z,6.05
2023-02-15T02:29:19.582Z,9.52
2023-02-15T02:32:15.007Z,8.45
2023-02-15T02:35:09.958Z,6.15
2023-02-15T02:38:09.483Z,6.28
2023-02-15T02:40:58.602Z,7.40
2023-02-15T02:43:39.397Z,6.32
2023-02-15T02:46:33.292Z,7.05
2023-02-15T02:48:59.795Z,5.75
2023-02-15T02:51:26.198Z,7.15
2023-02-15T02:53:58.224Z,5.93
2023-02-15T02:56:43.434Z,7.97
2023-02-15T02:59:30.509Z,6.78
2023-02-15T03:02:01.395Z,7.13
2023-02-15T03:04:33.919Z,7.40
2023-02-15T03:07:15.638Z,7.43
2023-02-15T03:09:49.808Z,6.40
2023-02-15T03:12:27.784Z,7.03
2023-02-15T03:15:03.776Z,5.90
2023-02-15T03:17:34.610Z,6.65
2023-02-15T03:20:30.586Z,7.43
2023-02-15T03:23:07.305Z,6.15
2023-02-15T03:25:37.196Z,6.90
2023-02-15T03:28:08.269Z,6.88
2023-02-15T03:30:36.113Z,6.65
2023-02-15T03:33:05.314Z,5.75
2023-02-15T03:35:40.086Z,5.35
2023-02-15T03:38:10.156Z,6.18
2023-02-15T03:41:02.104Z,7.57
2023-02-15T03:43:41.351Z,6.75
2023-02-15T03:46:12.830Z,7.53
2023-02-15T03:51:33.996Z,6.22
2023-02-15T03:54:14.789Z,5.82
2023-02-15T03:57:03.155Z,8.35
2023-02-15T03:59:48.328Z,6.18
2023-02-15T04:02:27.418Z,6.78
2023-02-15T04:04:53.784Z,6.45
2023-02-15T04:07:20.210Z,8.82
2023-02-15T04:10:05.069Z,7.70
2023-02-15T04:12:31.915Z,6.72
2023-02-15T04:15:16.926Z,10.75
2023-02-15T04:17:43.254Z,7.40
2023-02-15T04:20:28.682Z,7.75
2023-02-15T04:23:14.554Z,6.65
2023-02-15T04:25:40.968Z,6.38
2023-02-15T04:28:08.689Z,6.57
2023-02-15T04:30:35.382Z,7.93
2023-02-15T04:33:01.797Z,7.53
2023-02-15T04:35:28.404Z,7.78
2023-02-15T04:37:54.849Z,6.35
2023-02-15T04:40:23.356Z,9.68
2023-02-15T04:42:50.165Z,10.38
2023-02-15T04:45:16.953Z,6.28
2023-02-15T04:47:43.459Z,7.93
2023-02-15T04:50:10.381Z,7.57
2023-02-15T04:52:37.149Z,6.07
2023-02-15T04:55:03.767Z,6.13
2023-02-15T04:57:30.175Z,5.88
2023-02-15T04:59:56.566Z,5.85
2023-02-15T05:02:23.046Z,5.53
2023-02-15T05:04:49.451Z,7.45
2023-02-15T05:07:15.865Z,6.97
2023-02-15T05:09:43.333Z,7.95
2023-02-15T05:12:09.757Z,6.43
2023-02-15T05:14:36.136Z,6.55
2023-02-15T05:17:04.143Z,6.05
2023-02-15T05:19:30.554Z,5.75
2023-02-15T05:21:58.018Z,6.20
2023-02-15T05:24:43.386Z,6.20
2023-02-15T05:27:31.116Z,7.60
2023-02-15T05:29:57.680Z,6.97
2023-02-15T05:32:24.378Z,6.25
2023-02-15T05:34:50.889Z,5.05
2023-02-15T05:37:23.115Z,6.53
2023-02-15T05:39:51.556Z,6.55
2023-02-15T05:42:17.939Z,6.45
2023-02-15T05:44:44.439Z,13.50
2023-02-15T05:47:10.895Z,9.68
2023-02-15T05:49:37.364Z,12.32
2023-02-15T05:52:04.494Z,8.00
2023-02-15T05:54:33.084Z,5.90
2023-02-15T05:56:59.468Z,7.55
2023-02-15T05:59:26.024Z,7.50
2023-02-15T06:01:52.487Z,7.00
2023-02-15T06:04:18.838Z,6.53
2023-02-15T06:06:46.245Z,6.95
2023-02-15T06:09:13.716Z,8.00
2023-02-15T06:11:40.144Z,6.82
2023-02-15T06:14:07.510Z,7.88
2023-02-15T06:16:35.894Z,7.05
2023-02-15T06:19:04.056Z,5.97
2023-02-15T06:21:31.640Z,6.28
2023-02-15T06:23:58.483Z,7.97
2023-02-15T06:26:24.829Z,9.88
2023-02-15T06:28:54.423Z,6.75
2023-02-15T06:31:20.983Z,6.25
2023-02-15T06:33:47.614Z,7.20
2023-02-15T06:36:14.039Z,7.47
2023-02-15T06:38:40.586Z,6.90
2023-02-15T06:41:07.137Z,7.05
2023-02-15T06:43:34.733Z,7.90
2023-02-15T06:46:02.096Z,11.15
2023-02-15T06:48:28.631Z,9.65
2023-02-15T06:50:54.994Z,8.02
2023-02-15T06:53:21.382Z,8.98
2023-02-15T06:55:47.917Z,7.40
2023-02-15T06:58:14.444Z,6.95
2023-02-15T07:00:40.797Z,7.93
2023-02-15T07:03:08.276Z,7.22
2023-02-15T07:05:35.236Z,6.80
2023-02-15T07:08:02.056Z,8.15
2023-02-15T07:10:28.890Z,6.97
2023-02-15T07:12:55.346Z,6.90
2023-02-15T07:15:22.034Z,7.65
2023-02-15T07:17:49.197Z,7.18
2023-02-15T07:20:19.554Z,7.25
2023-02-15T07:22:46.996Z,5.22
2023-02-15T07:25:14.571Z,5.72
2023-02-15T07:27:41.597Z,6.70
2023-02-15T07:30:11.312Z,6.07
2023-02-15T07:32:57.881Z,5.65
2023-02-15T07:35:24.569Z,7.05
2023-02-15T07:37:50.930Z,6.35
2023-02-15T07:40:17.583Z,6.93
2023-02-15T07:42:44.028Z,6.70
2023-02-15T07:45:10.459Z,6.70
2023-02-15T07:47:36.917Z,6.22
2023-02-15T07:50:03.411Z,7.80
2023-02-15T07:52:30.028Z,6.82
2023-02-15T07:54:56.395Z,8.05
2023-02-15T07:57:22.822Z,7.32
2023-02-15T07:59:49.179Z,6.80
2023-02-15T08:02:17.551Z,6.43
2023-02-15T08:04:44.745Z,6.05
2023-02-15T08:07:11.106Z,5.53
2023-02-15T08:09:37.567Z,6.40
2023-02-15T08:12:05.112Z,6.78
2023-02-15T08:14:33.160Z,7.82
2023-02-15T08:17:03.321Z,7.38
2023-02-15T08:19:32.590Z,6.00
2023-02-15T08:22:01.386Z,6.88
2023-02-15T08:24:30.919Z,5.88
2023-02-15T08:26:58.085Z,6.22
2023-02-15T08:29:27.468Z,7.63
2023-02-15T08:32:03.192Z,6.35
2023-02-15T08:34:32.418Z,5.70
2023-02-15T08:36:58.810Z,5.47
2023-02-15T08:39:25.345Z,7.13
2023-02-15T08:41:51.790Z,5.88
2023-02-15T08:44:20.126Z,6.22
2023-02-15T08:46:48.708Z,6.72
2023-02-15T08:49:20.581Z,6.28
2023-02-15T08:51:48.243Z,6.05
2023-02-15T08:54:17.530Z,6.63
2023-02-15T08:56:45.552Z,6.47
2023-02-15T08:59:15.750Z,5.68
2023-02-15T09:01:42.201Z,5.68
2023-02-15T09:04:09.966Z,5.75
2023-02-15T09:06:38.413Z,5.43
2023-02-15T09:09:04.853Z,5.00
2023-02-15T09:11:35.069Z,5.97
2023-02-15T09:14:08.100Z,7.43
2023-02-15T09:16:36.871Z,6.25
2023-02-15T09:19:05.621Z,7.25
2023-02-15T09:21:32.844Z,6.28
2023-02-15T09:24:01.927Z,5.88
2023-02-15T09:26:30.766Z,6.45
2023-02-15T09:29:00.884Z,6.85
2023-02-15T09:31:29.774Z,6.85
2023-02-15T09:33:56.821Z,6.93
2023-02-15T09:36:25.878Z,7.00
2023-02-15T09:39:20.350Z,6.65
2023-02-15T09:42:13.001Z,7.72
2023-02-15T09:45:12.966Z,6.18
2023-02-15T09:48:09.355Z,5.80
2023-02-15T09:50:54.198Z,6.28
2023-02-15T09:53:42.330Z,7.55
2023-02-15T09:56:38.367Z,7.45
2023-02-15T09:59:25.994Z,7.40
2023-02-15T10:02:29.737Z,7.57
2023-02-15T10:05:17.104Z,6.97
2023-02-15T10:08:25.347Z,6.88
2023-02-15T10:11:40.130Z,6.75
2023-02-15T10:14:25.200Z,8.95
2023-02-15T10:17:36.040Z,9.32
2023-02-15T10:20:20.033Z,6.93
2023-02-15T10:23:14.153Z,7.20
2023-02-15T10:25:49.738Z,6.25
2023-02-15T10:28:19.729Z,6.65
2023-02-15T10:30:52.335Z,7.05
2023-02-15T10:33:26.986Z,6.07
2023-02-15T10:36:36.215Z,6.32
2023-02-15T10:39:13.478Z,6.35
2023-02-15T10:41:51.358Z,7.40
2023-02-15T10:44:38.459Z,6.05
2023-02-15T10:47:37.449Z,7.15
2023-02-15T10:50:22.065Z,6.70
2023-02-15T10:53:10.238Z,6.75
2023-02-15T10:56:02.129Z,7.28
2023-02-15T10:58:37.097Z,7.03
2023-02-15T11:01:26.481Z,7.25
2023-02-15T11:04:17.752Z,9.40
2023-02-15T11:06:52.121Z,7.90
2023-02-15T11:09:22.138Z,7.57
2023-02-15T11:11:53.594Z,7.18
2023-02-15T11:17:13.833Z,7.00
2023-02-15T11:19:50.472Z,8.15
2023-02-15T11:22:19.510Z,7.32
2023-02-15T11:24:47.575Z,7.57
2023-02-15T11:27:13.962Z,6.97
2023-02-15T11:29:55.936Z,7.85
2023-02-15T11:32:33.492Z,6.78
2023-02-15T11:35:12.553Z,7.38
2023-02-15T11:37:49.551Z,8.43
2023-02-15T11:40:25.946Z,7.35
2023-02-15T11:42:58.459Z,8.15
2023-02-15T11:45:33.196Z,7.60
2023-02-15T11:48:00.849Z,8.20
2023-02-15T11:50:30.415Z,8.70
2023-02-15T11:53:07.516Z,7.25
2023-02-15T11:58:10.665Z,7.38
2023-02-15T12:00:51.151Z,6.90
2023-02-15T12:03:29.201Z,8.05
2023-02-15T12:06:03.609Z,7.10
2023-02-15T12:08:39.799Z,7.47
2023-02-15T12:11:23.343Z,8.27
2023-02-15T12:14:03.325Z,8.23
2023-02-15T12:16:35.286Z,7.85
2023-02-15T12:19:03.275Z,9.75
2023-02-15T12:21:34.034Z,8.20
2023-02-15T12:24:24.078Z,7.63
2023-02-15T12:27:18.320Z,8.25
2023-02-15T12:32:34.329Z,6.55
2023-02-15T12:35:15.800Z,8.15
2023-02-15T12:37:54.689Z,9.07
2023-02-15T12:40:31.386Z,8.23
2023-02-15T12:42:59.161Z,8.75
2023-02-15T12:45:31.043Z,8.68
2023-02-15T12:48:17.636Z,8.60
2023-02-15T12:50:46.337Z,9.07
2023-02-15T12:53:24.336Z,9.10
2023-02-15T12:56:03.770Z,9.65
2023-02-15T12:58:32.548Z,9.25
2023-02-15T13:01:20.384Z,9.45
2023-02-15T13:03:56.041Z,10.48
2023-02-15T13:06:23.225Z,9.60
2023-02-15T13:08:55.517Z,8.50
2023-02-15T13:11:34.971Z,9.45
2023-02-15T13:14:04.435Z,9.10
2023-02-15T13:16:37.834Z,9.15
2023-02-15T13:19:11.299Z,9.85
2023-02-15T13:21:41.077Z,8.90
2023-02-15T13:24:19.367Z,10.25
2023-02-15T13:26:48.197Z,9.32
2023-02-15T13:29:36.822Z,9.55
2023-02-15T13:32:21.882Z,9.10
2023-02-15T13:34:48.348Z,11.18
2023-02-15T13:37:21.756Z,10.48
2023-02-15T13:40:19.774Z,10.63
2023-02-15T13:42:50.091Z,10.50
2023-02-15T13:45:31.717Z,10.70
2023-02-15T13:48:29.391Z,10.80
2023-02-15T13:51:22.047Z,10.63
2023-02-15T13:54:21.441Z,11.68
2023-02-15T13:57:15.118Z,12.02
2023-02-15T13:59:57.075Z,10.68
2023-02-15T14:03:04.797Z,10.88
2023-02-15T14:05:52.698Z,10.52
2023-02-15T14:08:25.073Z,9.60
2023-02-15T14:11:05.668Z,10.68
2023-02-15T14:13:49.576Z,10.45
2023-02-15T14:17:07.192Z,10.98
2023-02-15T14:19:46.587Z,12.30
2023-02-15T14:22:22.662Z,11.93
2023-02-15T14:25:18.253Z,25.42
2023-02-15T14:27:57.353Z,11.50
2023-02-15T14:30:30.564Z,9.88
2023-02-15T14:33:05.588Z,11.57
2023-02-15T14:35:32.401Z,11.52
2023-02-15T14:38:27.181Z,13.77
2023-02-15T14:41:10.342Z,12.85
2023-02-15T14:44:08.238Z,12.43
2023-02-15T14:46:42.820Z,10.65
2023-02-15T14:49:15.094Z,11.18
2023-02-15T14:51:43.675Z,11.85
2023-02-15T14:54:22.435Z,11.20
2023-02-15T14:57:10.937Z,11.00
2023-02-15T14:59:58.399Z,11.05
2023-02-15T15:02:32.670Z,12.77
2023-02-15T15:05:17.810Z,14.15
2023-02-15T15:07:52.556Z,11.85
2023-02-15T15:10:21.590Z,12.38
2023-02-15T15:12:52.039Z,11.15
2023-02-15T15:15:21.558Z,11.73
2023-02-15T15:18:05.124Z,10.73
2023-02-15T15:20:42.766Z,9.93
2023-02-15T15:23:17.408Z,10.25
2023-02-15T15:25:45.698Z,11.32
2023-02-15T15:28:34.122Z,11.68
2023-02-15T15:31:15.722Z,11.40
2023-02-15T15:33:51.814Z,12.23
2023-02-15T15:36:46.302Z,11.88
2023-02-15T15:39:21.717Z,13.93
2023-02-15T15:42:03.298Z,11.50
2023-02-15T15:44:48.238Z,10.35
2023-02-15T15:47:33.629Z,12.30
2023-02-15T15:50:00.680Z,10.88
2023-02-15T15:52:29.564Z,11.88
2023-02-15T15:54:58.815Z,10.05
2023-02-15T15:57:30.023Z,11.38
2023-02-15T16:00:01.307Z,11.57
2023-02-15T16:02:29.153Z,10.38
2023-02-15T16:04:55.750Z,12.90
2023-02-15T16:07:27.011Z,12.35
2023-02-15T16:10:24.181Z,11.90
2023-02-15T16:12:51.811Z,10.40
2023-02-15T16:15:36.721Z,11.38
2023-02-15T16:18:04.302Z,11.77
2023-02-15T16:20:40.665Z,13.13
2023-02-15T16:23:35.055Z,11.75
2023-02-15T16:28:39.707Z,10.10
2023-02-15T16:31:15.138Z,10.63
2023-02-15T16:33:44.003Z,11.45
2023-02-15T16:36:27.731Z,12.70
2023-02-15T16:38:54.054Z,11.98
2023-02-15T16:41:28.892Z,14.57
2023-02-15T16:43:59.265Z,14.77
2023-02-15T16:46:30.839Z,15.73
2023-02-15T16:49:03.164Z,12.88
2023-02-15T16:51:32.818Z,11.23
2023-02-15T16:54:07.164Z,14.77
2023-02-15T16:56:34.162Z,12.60
2023-02-15T16:59:02.101Z,11.95
2023-02-15T17:01:33.719Z,11.43
2023-02-15T17:04:23.049Z,13.70
2023-02-15T17:07:18.404Z,13.07
2023-02-15T17:09:52.894Z,13.20
2023-02-15T17:12:46.008Z,11.25
2023-02-15T17:15:29.006Z,13.32
2023-02-15T17:18:14.101Z,13.18
2023-02-15T17:20:45.382Z,13.13
2023-02-15T17:23:27.143Z,13.85
2023-02-15T17:25:53.953Z,12.10
2023-02-15T17:28:25.321Z,13.45
2023-02-15T17:30:54.569Z,15.98
2023-02-15T17:33:48.012Z,14.43
2023-02-15T17:36:23.727Z,11.63
2023-02-15T17:39:23.113Z,13.15
2023-02-15T17:41:53.817Z,13.05
2023-02-15T17:44:20.322Z,12.93
2023-02-15T17:46:46.777Z,13.93
2023-02-15T17:49:24.453Z,13.65
2023-02-15T17:51:50.981Z,11.30
2023-02-15T17:54:35.607Z,13.48
2023-02-15T17:57:05.769Z,14.77
2023-02-15T17:59:32.207Z,15.77
2023-02-15T18:02:17.275Z,14.73
2023-02-15T18:05:02.160Z,12.52
2023-02-15T18:07:48.032Z,15.82
2023-02-15T18:10:37.839Z,13.27
2023-02-15T18:13:04.839Z,12.68
2023-02-15T18:15:31.412Z,17.00
2023-02-15T18:17:57.923Z,14.05
2023-02-15T18:20:34.791Z,12.90
2023-02-15T18:23:02.111Z,13.85
2023-02-15T18:25:29.031Z,12.82
2023-02-15T18:27:55.606Z,13.35
2023-02-15T18:30:26.202Z,14.70
2023-02-15T18:32:56.516Z,14.05
2023-02-15T18:35:34.625Z,15.18
2023-02-15T18:38:01.880Z,11.90
2023-02-15T18:40:29.349Z,14.57
2023-02-15T18:42:57.103Z,13.20
2023-02-15T18:45:28.551Z,11.75
2023-02-15T18:50:24.354Z,13.68
2023-02-15T18:52:51.753Z,13.43
2023-02-15T18:55:27.694Z,15.20
2023-02-15T18:57:56.538Z,13.85
2023-02-15T19:00:26.045Z,13.48
2023-02-15T19:02:53.924Z,13.50
2023-02-15T19:05:22.496Z,16.23
2023-02-15T19:07:50.481Z,13.48
2023-02-15T19:10:28.738Z,16.42
2023-02-15T19:12:57.437Z,13.52
2023-02-15T19:15:26.824Z,12.20
2023-02-15T19:17:54.745Z,12.30
2023-02-15T19:20:26.823Z,13.43
2023-02-15T19:22:56.380Z,11.63
2023-02-15T19:25:28.633Z,12.32
2023-02-15T19:27:56.228Z,10.90
2023-02-15T19:30:27.799Z,10.95
2023-02-15T19:32:54.358Z,12.05
2023-02-15T19:35:24.087Z,12.65
2023-02-15T19:37:53.293Z,12.48
2023-02-15T19:40:22.595Z,10.98
2023-02-15T19:42:49.713Z,10.23
2023-02-15T19:45:25.194Z,11.35
2023-02-15T19:47:53.811Z,12.30
2023-02-15T19:50:28.519Z,10.93
2023-02-15T19:52:55.425Z,12.18
2023-02-15T19:55:32.779Z,13.05
2023-02-15T19:58:00.949Z,11.93
2023-02-15T20:00:33.518Z,14.75
2023-02-15T20:03:00.622Z,14.52
2023-02-15T20:05:28.893Z,12.98
2023-02-15T20:07:56.511Z,13.32
2023-02-15T20:10:27.035Z,12.65
2023-02-15T20:12:55.043Z,12.23
2023-02-15T20:15:37.689Z,15.02
2023-02-15T20:18:04.974Z,16.25
2023-02-15T20:20:53.238Z,14.45
2023-02-15T20:23:27.001Z,13.73
2023-02-15T20:25:58.140Z,14.45
2023-02-15T20:28:28.415Z,12.93
2023-02-15T20:30:55.380Z,13.48
2023-02-15T20:33:22.729Z,14.93
2023-02-15T20:35:50.286Z,13.77
2023-02-15T20:38:30.876Z,13.98
2023-02-15T20:41:18.522Z,14.70
2023-02-15T20:43:47.012Z,12.20
2023-02-15T20:46:13.651Z,14.98
2023-02-15T20:48:40.340Z,13.25
2023-02-15T20:51:17.359Z,13.80
2023-02-15T20:53:44.715Z,11.57
2023-02-15T20:56:23.616Z,11.32
2023-02-15T20:58:51.242Z,12.02
2023-02-15T21:01:19.865Z,12.73
2023-02-15T21:03:47.122Z,11.00
2023-02-15T21:06:16.118Z,10.95
2023-02-15T21:08:42.804Z,12.43
2023-02-15T21:11:21.047Z,11.38
2023-02-15T21:13:50.122Z,12.30
2023-02-15T21:16:20.711Z,12.32
2023-02-15T21:18:48.245Z,11.82
2023-02-15T21:21:23.379Z,13.25
2023-02-15T21:23:51.988Z,14.00
2023-02-15T21:26:21.580Z,14.15
2023-02-15T21:28:50.032Z,12.27
2023-02-15T21:31:25.345Z,13.27
2023-02-15T21:33:53.349Z,13.65
2023-02-15T21:36:23.349Z,12.68
2023-02-15T21:38:50.795Z,10.95
2023-02-15T21:41:39.458Z,12.52
2023-02-15T21:44:40.582Z,11.25
2023-02-15T21:47:36.598Z,12.98
2023-02-15T21:50:26.273Z,12.27
2023-02-15T21:52:53.098Z,11.88
2023-02-15T21:55:19.711Z,12.35
2023-02-15T21:57:46.347Z,13.57
2023-02-15T22:00:21.212Z,13.75
2023-02-15T22:02:51.269Z,11.57
2023-02-15T22:05:21.339Z,14.20
2023-02-15T22:07:47.977Z,10.82
2023-02-15T22:10:15.791Z,11.40
2023-02-15T22:12:44.066Z,12.63
2023-02-15T22:15:23.344Z,10.85
2023-02-15T22:17:51.280Z,10.65
2023-02-15T22:20:20.791Z,8.93
2023-02-15T22:22:48.343Z,11.75
2023-02-15T22:25:17.445Z,10.50
2023-02-15T22:27:49.046Z,10.27
2023-02-15T22:30:34.099Z,10.43
2023-02-15T22:33:04.708Z,13.35
2023-02-15T22:35:36.723Z,11.32
2023-02-15T22:38:03.165Z,12.00
2023-02-15T22:40:33.012Z,11.32
2023-02-15T22:43:03.855Z,9.80
2023-02-15T22:45:32.313Z,11.15
2023-02-15T22:48:00.453Z,12.70
2023-02-15T22:50:32.850Z,11.88
2023-02-15T22:53:01.020Z,10.90
2023-02-15T22:55:30.700Z,10.80
2023-02-15T22:57:57.831Z,10.52
2023-02-15T23:00:28.168Z,10.63
2023-02-15T23:02:54.954Z,11.88
2023-02-15T23:05:25.701Z,11.00
2023-02-15T23:07:52.395Z,10.75
2023-02-15T23:10:23.848Z,10.80
2023-02-15T23:15:50.199Z,11.48
2023-02-15T23:18:24.413Z,11.48
2023-02-15T23:20:54.041Z,12.30
2023-02-15T23:23:30.297Z,10.57
2023-02-15T23:26:04.523Z,12.10
2023-02-15T23:28:36.304Z,10.38
2023-02-15T23:31:03.195Z,12.38
2023-02-15T23:33:34.181Z,11.15
2023-02-15T23:36:00.714Z,11.13
2023-02-15T23:38:30.312Z,11.98
2023-02-15T23:41:19.575Z,11.70
2023-02-15T23:43:49.709Z,11.40
2023-02-15T23:46:43.011Z,13.32
2023-02-15T23:49:19.595Z,10.90
2023-02-15T23:51:51.121Z,13.13
2023-02-15T23:54:19.539Z,14.40
2023-02-15T23:56:48.690Z,12.80
2023-02-15T23:59:26.973Z,12.20
